sensor_id;sensor_type;location;lat;lon;timestamp;pressure;altitude;pressure_sealevel;temperature;humidity
1401;BME280;46518;48.842;8.926;2023-06-26T00:00:58;97027.50;;;22.28;44.32
1401;BME280;46518;48.842;8.926;2023-06-26T00:03:29;97034.28;;;22.25;44.03
1401;BME280;46518;48.842;8.926;2023-06-26T00:05:58;97031.13;;;22.23;44.04
1401;BME280;46518;48.842;8.926;2023-06-26T00:08:28;97025.00;;;22.14;44.03
1401;BME280;46518;48.842;8.926;2023-06-26T00:10:59;97023.56;;;22.16;44.09
1401;BME280;46518;48.842;8.926;2023-06-26T00:13:29;97030.81;;;22.16;44.29
1401;BME280;46518;48.842;8.926;2023-06-26T00:16:04;97018.44;;;22.03;44.91
1401;BME280;46518;48.842;8.926;2023-06-26T00:18:35;97027.22;;;22.12;44.73
1401;BME280;46518;48.842;8.926;2023-06-26T00:21:06;97032.13;;;22.10;44.93
1401;BME280;46518;48.842;8.926;2023-06-26T00:23:45;97009.44;;;21.98;44.65
1401;BME280;46518;48.842;8.926;2023-06-26T00:26:27;97030.41;;;22.05;44.98
1401;BME280;46518;48.842;8.926;2023-06-26T00:29:07;97027.66;;;22.14;44.98
1401;BME280;46518;48.842;8.926;2023-06-26T00:31:50;97028.13;;;22.16;44.74
1401;BME280;46518;48.842;8.926;2023-06-26T00:34:38;97029.88;;;22.21;44.74
1401;BME280;46518;48.842;8.926;2023-06-26T00:37:41;97020.22;;;22.28;44.74
1401;BME280;46518;48.842;8.926;2023-06-26T00:40:17;97030.94;;;22.28;44.49
1401;BME280;46518;48.842;8.926;2023-06-26T00:42:52;97029.69;;;22.34;44.69
1401;BME280;46518;48.842;8.926;2023-06-26T00:45:26;97011.88;;;22.30;44.47
1401;BME280;46518;48.842;8.926;2023-06-26T00:48:23;97024.13;;;22.39;44.88
1401;BME280;46518;48.842;8.926;2023-06-26T00:51:02;97021.28;;;22.36;44.38
1401;BME280;46518;48.842;8.926;2023-06-26T00:53:32;97018.75;;;22.39;44.70
1401;BME280;46518;48.842;8.926;2023-06-26T00:56:08;97019.72;;;22.35;44.97
1401;BME280;46518;48.842;8.926;2023-06-26T00:58:42;97024.69;;;22.24;45.04
1401;BME280;46518;48.842;8.926;2023-06-26T01:01:26;97026.75;;;22.10;45.34
1401;BME280;46518;48.842;8.926;2023-06-26T01:03:59;97024.75;;;21.98;45.49
1401;BME280;46518;48.842;8.926;2023-06-26T01:06:39;97016.75;;;21.89;45.36
1401;BME280;46518;48.842;8.926;2023-06-26T01:09:11;97024.50;;;21.82;45.99
1401;BME280;46518;48.842;8.926;2023-06-26T01:11:49;97021.84;;;21.73;46.31
1401;BME280;46518;48.842;8.926;2023-06-26T01:14:23;97027.72;;;21.58;46.37
1401;BME280;46518;48.842;8.926;2023-06-26T01:17:00;97030.88;;;21.51;46.54
1401;BME280;46518;48.842;8.926;2023-06-26T01:19:44;97021.44;;;21.45;46.97
1401;BME280;46518;48.842;8.926;2023-06-26T01:22:19;97026.63;;;21.33;47.22
1401;BME280;46518;48.842;8.926;2023-06-26T01:25:03;97024.72;;;21.33;47.26
1401;BME280;46518;48.842;8.926;2023-06-26T01:27:50;97020.31;;;21.29;47.49
1401;BME280;46518;48.842;8.926;2023-06-26T01:30:30;97017.34;;;21.30;47.21
1401;BME280;46518;48.842;8.926;2023-06-26T01:33:05;97018.47;;;21.12;48.26
1401;BME280;46518;48.842;8.926;2023-06-26T01:35:51;97016.41;;;21.00;48.53
1401;BME280;46518;48.842;8.926;2023-06-26T01:38:22;97016.72;;;20.90;48.51
1401;BME280;46518;48.842;8.926;2023-06-26T01:41:04;97010.72;;;20.76;48.94
1401;BME280;46518;48.842;8.926;2023-06-26T01:43:58;97006.03;;;20.73;48.85
1401;BME280;46518;48.842;8.926;2023-06-26T01:47:09;97005.84;;;20.69;48.89
1401;BME280;46518;48.842;8.926;2023-06-26T01:49:51;96999.41;;;20.70;49.02
1401;BME280;46518;48.842;8.926;2023-06-26T01:52:38;97008.38;;;20.65;49.00
1401;BME280;46518;48.842;8.926;2023-06-26T01:55:26;97001.63;;;20.59;49.58
1401;BME280;46518;48.842;8.926;2023-06-26T01:58:30;97000.78;;;20.50;49.79
1401;BME280;46518;48.842;8.926;2023-06-26T02:01:18;97004.53;;;20.49;50.15
1401;BME280;46518;48.842;8.926;2023-06-26T02:03:55;96982.81;;;20.24;50.04
1401;BME280;46518;48.842;8.926;2023-06-26T02:06:30;97005.13;;;20.29;50.49
1401;BME280;46518;48.842;8.926;2023-06-26T02:09:06;97001.78;;;20.14;50.68
1401;BME280;46518;48.842;8.926;2023-06-26T02:11:40;97010.75;;;20.18;50.65
1401;BME280;46518;48.842;8.926;2023-06-26T02:14:20;97010.91;;;20.13;50.81
1401;BME280;46518;48.842;8.926;2023-06-26T02:17:11;97001.91;;;20.09;50.54
1401;BME280;46518;48.842;8.926;2023-06-26T02:19:42;97008.84;;;20.10;50.71
1401;BME280;46518;48.842;8.926;2023-06-26T02:22:21;97013.72;;;20.08;50.94
1401;BME280;46518;48.842;8.926;2023-06-26T02:25:03;97013.56;;;20.04;50.99
1401;BME280;46518;48.842;8.926;2023-06-26T02:27:33;97001.28;;;20.03;50.61
1401;BME280;46518;48.842;8.926;2023-06-26T02:30:11;97010.25;;;20.08;50.95
1401;BME280;46518;48.842;8.926;2023-06-26T02:33:05;97008.41;;;20.17;50.64
1401;BME280;46518;48.842;8.926;2023-06-26T02:35:38;97013.44;;;20.18;50.41
1401;BME280;46518;48.842;8.926;2023-06-26T02:38:09;97009.19;;;20.17;50.24
1401;BME280;46518;48.842;8.926;2023-06-26T02:40:42;97012.50;;;20.23;50.24
1401;BME280;46518;48.842;8.926;2023-06-26T02:43:22;96999.91;;;20.23;50.23
1401;BME280;46518;48.842;8.926;2023-06-26T02:45:56;97005.13;;;20.29;50.07
1401;BME280;46518;48.842;8.926;2023-06-26T02:48:26;97007.97;;;20.32;49.65
1401;BME280;46518;48.842;8.926;2023-06-26T02:50:57;97006.88;;;20.33;49.96
1401;BME280;46518;48.842;8.926;2023-06-26T02:53:39;97001.38;;;20.38;49.61
1401;BME280;46518;48.842;8.926;2023-06-26T02:56:10;97009.09;;;20.40;49.81
1401;BME280;46518;48.842;8.926;2023-06-26T02:58:38;96997.59;;;20.31;49.72
1401;BME280;46518;48.842;8.926;2023-06-26T03:01:10;97008.47;;;20.43;49.91
1401;BME280;46518;48.842;8.926;2023-06-26T03:03:46;97010.03;;;20.44;49.81
1401;BME280;46518;48.842;8.926;2023-06-26T03:06:29;97009.09;;;20.40;49.54
1401;BME280;46518;48.842;8.926;2023-06-26T03:09:03;97014.59;;;20.35;49.73
1401;BME280;46518;48.842;8.926;2023-06-26T03:11:41;97011.28;;;20.38;49.69
1401;BME280;46518;48.842;8.926;2023-06-26T03:14:23;97013.91;;;20.29;49.84
1401;BME280;46518;48.842;8.926;2023-06-26T03:17:06;97011.25;;;20.29;49.98
1401;BME280;46518;48.842;8.926;2023-06-26T03:19:44;97011.09;;;20.25;50.05
1401;BME280;46518;48.842;8.926;2023-06-26T03:22:29;97011.72;;;20.22;50.10
1401;BME280;46518;48.842;8.926;2023-06-26T03:25:05;97010.28;;;20.16;50.46
1401;BME280;46518;48.842;8.926;2023-06-26T03:27:37;97006.19;;;20.10;50.52
1401;BME280;46518;48.842;8.926;2023-06-26T03:30:06;97012.59;;;20.09;50.59
1401;BME280;46518;48.842;8.926;2023-06-26T03:32:47;97016.69;;;20.07;50.69
1401;BME280;46518;48.842;8.926;2023-06-26T03:35:19;97011.97;;;20.03;50.95
1401;BME280;46518;48.842;8.926;2023-06-26T03:37:50;97006.09;;;19.93;51.16
1401;BME280;46518;48.842;8.926;2023-06-26T03:40:34;97017.13;;;20.00;51.23
1401;BME280;46518;48.842;8.926;2023-06-26T03:43:17;97018.53;;;19.97;51.19
1401;BME280;46518;48.842;8.926;2023-06-26T03:46:09;97021.34;;;19.92;51.07
1401;BME280;46518;48.842;8.926;2023-06-26T03:48:52;97012.44;;;19.97;51.22
1401;BME280;46518;48.842;8.926;2023-06-26T03:51:33;97012.53;;;19.92;51.15
1401;BME280;46518;48.842;8.926;2023-06-26T03:54:01;97017.13;;;20.00;51.30
1401;BME280;46518;48.842;8.926;2023-06-26T03:56:31;97021.41;;;20.10;51.17
1401;BME280;46518;48.842;8.926;2023-06-26T03:59:02;97017.81;;;20.14;51.18
1401;BME280;46518;48.842;8.926;2023-06-26T04:01:41;97018.00;;;20.18;51.22
1401;BME280;46518;48.842;8.926;2023-06-26T04:04:14;97019.53;;;20.10;50.56
1401;BME280;46518;48.842;8.926;2023-06-26T04:06:49;97002.06;;;20.04;50.90
1401;BME280;46518;48.842;8.926;2023-06-26T04:09:28;97017.69;;;20.19;50.95
1401;BME280;46518;48.842;8.926;2023-06-26T04:12:03;97018.75;;;20.18;50.90
1401;BME280;46518;48.842;8.926;2023-06-26T04:14:46;97020.38;;;20.28;51.25
1401;BME280;46518;48.842;8.926;2023-06-26T04:17:24;97015.38;;;20.35;51.14
1401;BME280;46518;48.842;8.926;2023-06-26T04:19:59;97024.94;;;20.36;50.88
1401;BME280;46518;48.842;8.926;2023-06-26T04:22:35;97019.13;;;20.34;50.91
1401;BME280;46518;48.842;8.926;2023-06-26T04:25:18;97019.25;;;20.29;50.68
1401;BME280;46518;48.842;8.926;2023-06-26T04:27:54;97023.09;;;20.37;50.26
1401;BME280;46518;48.842;8.926;2023-06-26T04:30:30;97021.53;;;20.44;50.32
1401;BME280;46518;48.842;8.926;2023-06-26T04:33:16;97017.91;;;20.49;50.02
1401;BME280;46518;48.842;8.926;2023-06-26T04:35:56;97022.53;;;20.57;50.08
1401;BME280;46518;48.842;8.926;2023-06-26T04:38:35;97017.03;;;20.62;49.89
1401;BME280;46518;48.842;8.926;2023-06-26T04:41:09;97015.28;;;20.66;49.91
1401;BME280;46518;48.842;8.926;2023-06-26T04:43:40;97018.91;;;20.71;49.80
1401;BME280;46518;48.842;8.926;2023-06-26T04:46:09;97022.41;;;20.80;49.92
1401;BME280;46518;48.842;8.926;2023-06-26T04:48:51;97021.28;;;20.81;49.50
1401;BME280;46518;48.842;8.926;2023-06-26T04:51:29;97014.38;;;20.97;49.91
1401;BME280;46518;48.842;8.926;2023-06-26T04:54:10;97015.47;;;20.96;49.60
1401;BME280;46518;48.842;8.926;2023-06-26T04:56:45;97011.38;;;21.07;49.95
1401;BME280;46518;48.842;8.926;2023-06-26T04:59:19;97005.09;;;21.12;49.72
1401;BME280;46518;48.842;8.926;2023-06-26T05:01:59;97012.78;;;21.22;49.78
1401;BME280;46518;48.842;8.926;2023-06-26T05:04:27;97017.34;;;21.30;49.29
1401;BME280;46518;48.842;8.926;2023-06-26T05:06:59;97007.25;;;21.36;49.96
1401;BME280;46518;48.842;8.926;2023-06-26T05:09:51;97009.47;;;21.43;49.54
1401;BME280;46518;48.842;8.926;2023-06-26T05:12:22;97005.97;;;21.51;49.71
1401;BME280;46518;48.842;8.926;2023-06-26T05:17:54;97009.59;;;21.55;49.05
1401;BME280;46518;48.842;8.926;2023-06-26T05:20:39;97008.63;;;21.68;49.17
1401;BME280;46518;48.842;8.926;2023-06-26T05:23:16;97015.25;;;21.62;48.93
1401;BME280;46518;48.842;8.926;2023-06-26T05:25:52;97021.84;;;21.73;49.20
1401;BME280;46518;48.842;8.926;2023-06-26T05:28:38;97008.63;;;21.68;48.58
1401;BME280;46518;48.842;8.926;2023-06-26T05:31:32;97016.09;;;21.92;48.92
1401;BME280;46518;48.842;8.926;2023-06-26T05:34:07;97026.66;;;21.97;48.36
1401;BME280;46518;48.842;8.926;2023-06-26T05:36:58;97020.28;;;22.11;48.57
1401;BME280;46518;48.842;8.926;2023-06-26T05:39:34;97016.63;;;22.24;48.69
1401;BME280;46518;48.842;8.926;2023-06-26T05:42:10;97017.34;;;22.33;47.86
1401;BME280;46518;48.842;8.926;2023-06-26T05:44:53;97015.00;;;22.61;47.73
1401;BME280;46518;48.842;8.926;2023-06-26T05:47:23;97014.53;;;22.80;47.52
1401;BME280;46518;48.842;8.926;2023-06-26T05:49:54;97015.72;;;22.92;47.02
1401;BME280;46518;48.842;8.926;2023-06-26T05:52:23;97009.66;;;23.03;47.05
1401;BME280;46518;48.842;8.926;2023-06-26T05:54:59;97017.97;;;23.11;46.84
1401;BME280;46518;48.842;8.926;2023-06-26T05:57:43;97020.16;;;23.30;46.61
1401;BME280;46518;48.842;8.926;2023-06-26T06:00:22;97020.63;;;23.32;46.90
1401;BME280;46518;48.842;8.926;2023-06-26T06:03:02;97014.50;;;23.43;46.81
1401;BME280;46518;48.842;8.926;2023-06-26T06:05:31;97009.78;;;23.40;46.51
1401;BME280;46518;48.842;8.926;2023-06-26T06:08:09;97022.72;;;23.59;46.53
1401;BME280;46518;48.842;8.926;2023-06-26T06:10:42;97021.38;;;23.65;46.58
1401;BME280;46518;48.842;8.926;2023-06-26T06:13:14;97025.25;;;23.77;46.47
1401;BME280;46518;48.842;8.926;2023-06-26T06:15:46;97025.38;;;23.80;45.37
1401;BME280;46518;48.842;8.926;2023-06-26T06:18:15;97029.75;;;23.85;45.56
1401;BME280;46518;48.842;8.926;2023-06-26T06:20:49;97025.06;;;23.94;45.74
1401;BME280;46518;48.842;8.926;2023-06-26T06:23:22;97031.22;;;24.07;45.63
1401;BME280;46518;48.842;8.926;2023-06-26T06:25:56;97015.66;;;24.13;44.96
1401;BME280;46518;48.842;8.926;2023-06-26T06:28:37;97026.19;;;24.18;45.07
1401;BME280;46518;48.842;8.926;2023-06-26T06:31:09;97028.44;;;24.40;44.60
1401;BME280;46518;48.842;8.926;2023-06-26T06:33:41;97031.13;;;24.52;44.24
1401;BME280;46518;48.842;8.926;2023-06-26T06:36:20;97026.44;;;24.62;44.03
1401;BME280;46518;48.842;8.926;2023-06-26T06:38:54;97037.94;;;24.87;44.08
1401;BME280;46518;48.842;8.926;2023-06-26T06:41:27;97032.66;;;24.78;43.42
1401;BME280;46518;48.842;8.926;2023-06-26T06:44:07;97039.44;;;25.00;44.42
1401;BME280;46518;48.842;8.926;2023-06-26T06:46:44;97037.03;;;25.23;43.74
1401;BME280;46518;48.842;8.926;2023-06-26T06:49:24;97037.94;;;25.27;43.42
1401;BME280;46518;48.842;8.926;2023-06-26T06:52:04;97044.28;;;25.35;42.35
1401;BME280;46518;48.842;8.926;2023-06-26T06:54:53;97031.66;;;25.51;43.24
1401;BME280;46518;48.842;8.926;2023-06-26T06:57:25;97040.00;;;25.62;43.46
1401;BME280;46518;48.842;8.926;2023-06-26T07:00:14;97032.16;;;25.85;43.00
1401;BME280;46518;48.842;8.926;2023-06-26T07:02:47;97042.25;;;25.88;42.73
1401;BME280;46518;48.842;8.926;2023-06-26T07:05:31;97032.25;;;25.89;41.45
1401;BME280;46518;48.842;8.926;2023-06-26T07:08:03;97030.16;;;25.98;41.04
1401;BME280;46518;48.842;8.926;2023-06-26T07:10:48;97039.47;;;26.16;39.88
1401;BME280;46518;48.842;8.926;2023-06-26T07:13:30;97033.19;;;26.28;39.61
1401;BME280;46518;48.842;8.926;2023-06-26T07:16:06;97036.31;;;26.46;38.88
1401;BME280;46518;48.842;8.926;2023-06-26T07:18:42;97026.91;;;26.56;39.01
1401;BME280;46518;48.842;8.926;2023-06-26T07:21:19;97021.69;;;26.82;39.13
1401;BME280;46518;48.842;8.926;2023-06-26T07:24:00;97020.75;;;26.75;37.70
1401;BME280;46518;48.842;8.926;2023-06-26T07:26:40;97029.38;;;26.80;37.26
1401;BME280;46518;48.842;8.926;2023-06-26T07:29:21;97025.03;;;26.95;37.95
1401;BME280;46518;48.842;8.926;2023-06-26T07:32:03;97026.63;;;26.96;37.34
1401;BME280;46518;48.842;8.926;2023-06-26T07:34:37;97024.13;;;27.07;38.02
1401;BME280;46518;48.842;8.926;2023-06-26T07:37:16;97033.25;;;27.18;36.53
1401;BME280;46518;48.842;8.926;2023-06-26T07:39:49;97030.19;;;27.20;37.00
1401;BME280;46518;48.842;8.926;2023-06-26T07:42:24;97031.97;;;27.31;37.10
1401;BME280;46518;48.842;8.926;2023-06-26T07:44:52;97032.69;;;27.28;36.94
1401;BME280;46518;48.842;8.926;2023-06-26T07:47:39;97029.75;;;27.37;36.80
1401;BME280;46518;48.842;8.926;2023-06-26T07:50:18;97032.59;;;27.44;37.15
1401;BME280;46518;48.842;8.926;2023-06-26T07:52:57;97032.25;;;27.46;36.55
1401;BME280;46518;48.842;8.926;2023-06-26T07:55:46;97019.94;;;27.48;37.00
1401;BME280;46518;48.842;8.926;2023-06-26T07:58:21;97030.09;;;27.55;37.41
1401;BME280;46518;48.842;8.926;2023-06-26T08:01:14;97044.06;;;27.80;38.01
1401;BME280;46518;48.842;8.926;2023-06-26T08:03:55;97033.94;;;27.96;37.88
1401;BME280;46518;48.842;8.926;2023-06-26T08:06:53;97033.88;;;27.93;37.35
1401;BME280;46518;48.842;8.926;2023-06-26T08:09:23;97033.69;;;27.82;36.90
1401;BME280;46518;48.842;8.926;2023-06-26T08:11:52;97023.44;;;27.91;37.44
1401;BME280;46518;48.842;8.926;2023-06-26T08:14:29;97029.13;;;28.09;38.45
1401;BME280;46518;48.842;8.926;2023-06-26T08:17:04;97035.13;;;28.22;36.92
1401;BME280;46518;48.842;8.926;2023-06-26T08:19:33;97033.44;;;28.14;36.02
1401;BME280;46518;48.842;8.926;2023-06-26T08:22:05;97022.94;;;28.09;35.91
1401;BME280;46518;48.842;8.926;2023-06-26T08:24:39;97025.53;;;28.02;35.99
1401;BME280;46518;48.842;8.926;2023-06-26T08:27:15;97029.78;;;28.03;36.51
1401;BME280;46518;48.842;8.926;2023-06-26T08:29:50;97023.38;;;28.37;37.42
1401;BME280;46518;48.842;8.926;2023-06-26T08:32:40;97020.53;;;28.53;36.61
1401;BME280;46518;48.842;8.926;2023-06-26T08:35:10;97017.09;;;28.56;36.25
1401;BME280;46518;48.842;8.926;2023-06-26T08:37:47;97028.81;;;28.64;35.50
1401;BME280;46518;48.842;8.926;2023-06-26T08:40:23;97023.25;;;28.53;35.53
1401;BME280;46518;48.842;8.926;2023-06-26T08:42:58;97023.44;;;28.41;35.76
1401;BME280;46518;48.842;8.926;2023-06-26T08:45:41;97024.75;;;28.51;36.35
1401;BME280;46518;48.842;8.926;2023-06-26T08:48:10;97024.38;;;28.52;35.24
1401;BME280;46518;48.842;8.926;2023-06-26T08:50:48;97031.63;;;28.45;35.71
1401;BME280;46518;48.842;8.926;2023-06-26T08:53:29;97025.22;;;28.56;35.29
1401;BME280;46518;48.842;8.926;2023-06-26T08:55:59;97018.34;;;28.63;35.08
1401;BME280;46518;48.842;8.926;2023-06-26T08:58:38;97020.97;;;28.86;36.14
1401;BME280;46518;48.842;8.926;2023-06-26T09:01:10;97021.38;;;28.88;34.41
1401;BME280;46518;48.842;8.926;2023-06-26T09:03:50;97015.16;;;28.84;34.86
1401;BME280;46518;48.842;8.926;2023-06-26T09:06:24;97013.72;;;28.93;35.32
1401;BME280;46518;48.842;8.926;2023-06-26T09:08:55;97027.09;;;28.82;35.32
1401;BME280;46518;48.842;8.926;2023-06-26T09:11:29;97026.66;;;28.77;35.46
1401;BME280;46518;48.842;8.926;2023-06-26T09:14:10;97022.22;;;28.92;36.32
1401;BME280;46518;48.842;8.926;2023-06-26T09:16:42;97030.22;;;29.11;35.05
1401;BME280;46518;48.842;8.926;2023-06-26T09:19:13;97029.13;;;29.16;35.76
1401;BME280;46518;48.842;8.926;2023-06-26T09:21:51;97025.66;;;29.19;34.50
1401;BME280;46518;48.842;8.926;2023-06-26T09:24:25;97034.81;;;28.80;35.38
1401;BME280;46518;48.842;8.926;2023-06-26T09:27:02;97028.59;;;28.76;35.96
1401;BME280;46518;48.842;8.926;2023-06-26T09:29:47;97027.63;;;28.92;36.97
1401;BME280;46518;48.842;8.926;2023-06-26T09:32:16;97033.06;;;28.95;36.30
1401;BME280;46518;48.842;8.926;2023-06-26T09:34:55;97034.59;;;28.93;37.25
1401;BME280;46518;48.842;8.926;2023-06-26T09:37:32;97028.38;;;28.89;37.09
1401;BME280;46518;48.842;8.926;2023-06-26T09:40:04;97036.19;;;28.67;37.03
1401;BME280;46518;48.842;8.926;2023-06-26T09:42:37;97043.34;;;28.52;38.06
1401;BME280;46518;48.842;8.926;2023-06-26T09:45:20;97033.38;;;28.60;38.40
1401;BME280;46518;48.842;8.926;2023-06-26T09:47:51;97048.50;;;28.38;38.44
1401;BME280;46518;48.842;8.926;2023-06-26T09:50:22;97033.41;;;28.37;39.05
1401;BME280;46518;48.842;8.926;2023-06-26T09:53:08;97046.41;;;28.51;39.25
1401;BME280;46518;48.842;8.926;2023-06-26T09:55:45;97031.00;;;28.55;39.18
1401;BME280;46518;48.842;8.926;2023-06-26T09:58:27;97044.91;;;28.53;39.63
1401;BME280;46518;48.842;8.926;2023-06-26T10:01:24;97038.63;;;28.46;39.63
1401;BME280;46518;48.842;8.926;2023-06-26T10:03:59;97056.47;;;28.27;39.73
1401;BME280;46518;48.842;8.926;2023-06-26T10:06:45;97063.53;;;28.09;40.40
1401;BME280;46518;48.842;8.926;2023-06-26T10:09:23;97055.75;;;27.84;40.47
1401;BME280;46518;48.842;8.926;2023-06-26T10:12:06;97051.03;;;27.81;41.18
1401;BME280;46518;48.842;8.926;2023-06-26T10:14:43;97064.03;;;27.95;40.20
1401;BME280;46518;48.842;8.926;2023-06-26T10:17:30;97061.16;;;27.65;40.59
1401;BME280;46518;48.842;8.926;2023-06-26T10:20:02;97065.56;;;27.92;41.52
1401;BME280;46518;48.842;8.926;2023-06-26T10:22:44;97065.03;;;27.64;39.64
1401;BME280;46518;48.842;8.926;2023-06-26T10:25:19;97063.75;;;27.58;39.76
1401;BME280;46518;48.842;8.926;2023-06-26T10:27:58;97067.25;;;27.19;41.04
1401;BME280;46518;48.842;8.926;2023-06-26T10:30:46;97066.41;;;27.35;42.11
1401;BME280;46518;48.842;8.926;2023-06-26T10:33:22;97067.31;;;27.23;40.97
1401;BME280;46518;48.842;8.926;2023-06-26T10:35:53;97073.34;;;27.36;41.52
1401;BME280;46518;48.842;8.926;2023-06-26T10:38:51;97077.50;;;27.29;42.48
1401;BME280;46518;48.842;8.926;2023-06-26T10:41:31;97084.94;;;27.56;41.81
1401;BME280;46518;48.842;8.926;2023-06-26T10:44:27;97081.75;;;27.50;41.53
1401;BME280;46518;48.842;8.926;2023-06-26T10:47:03;97087.63;;;27.56;42.10
1401;BME280;46518;48.842;8.926;2023-06-26T10:49:37;97075.84;;;27.64;41.96
1401;BME280;46518;48.842;8.926;2023-06-26T10:52:09;97085.59;;;27.68;41.80
1401;BME280;46518;48.842;8.926;2023-06-26T10:54:38;97091.03;;;27.72;42.12
1401;BME280;46518;48.842;8.926;2023-06-26T10:57:16;97075.41;;;27.62;42.43
1401;BME280;46518;48.842;8.926;2023-06-26T11:00:09;97082.59;;;27.54;43.82
1401;BME280;46518;48.842;8.926;2023-06-26T11:02:48;97076.38;;;27.73;43.23
1401;BME280;46518;48.842;8.926;2023-06-26T11:05:24;97081.72;;;28.12;43.44
1401;BME280;46518;48.842;8.926;2023-06-26T11:08:03;97089.84;;;28.35;41.69
1401;BME280;46518;48.842;8.926;2023-06-26T11:10:50;97089.59;;;28.44;41.09
1401;BME280;46518;48.842;8.926;2023-06-26T11:13:28;97081.28;;;28.33;41.70
1401;BME280;46518;48.842;8.926;2023-06-26T11:16:03;97085.75;;;28.45;42.52
1401;BME280;46518;48.842;8.926;2023-06-26T11:18:34;97082.16;;;28.14;41.85
1401;BME280;46518;48.842;8.926;2023-06-26T11:21:10;97078.16;;;27.85;42.35
1401;BME280;46518;48.842;8.926;2023-06-26T11:23:51;97083.41;;;27.97;43.27
1401;BME280;46518;48.842;8.926;2023-06-26T11:26:43;97075.34;;;28.01;43.21
1401;BME280;46518;48.842;8.926;2023-06-26T11:29:19;97085.00;;;27.79;43.82
1401;BME280;46518;48.842;8.926;2023-06-26T11:32:03;97093.63;;;27.45;44.83
1401;BME280;46518;48.842;8.926;2023-06-26T11:34:39;97099.84;;;27.10;46.05
1401;BME280;46518;48.842;8.926;2023-06-26T11:37:21;97115.91;;;27.39;45.36
1401;BME280;46518;48.842;8.926;2023-06-26T11:40:16;97119.38;;;27.39;45.38
1401;BME280;46518;48.842;8.926;2023-06-26T11:42:50;97122.50;;;27.22;45.78
1401;BME280;46518;48.842;8.926;2023-06-26T11:45:20;97123.00;;;27.27;45.70
1401;BME280;46518;48.842;8.926;2023-06-26T11:50:50;97120.44;;;27.35;45.27
1401;BME280;46518;48.842;8.926;2023-06-26T11:53:27;97126.22;;;27.17;45.00
1401;BME280;46518;48.842;8.926;2023-06-26T11:56:13;97124.31;;;27.18;45.85
1401;BME280;46518;48.842;8.926;2023-06-26T11:59:01;97126.69;;;27.19;45.94
1401;BME280;46518;48.842;8.926;2023-06-26T12:01:49;97130.75;;;27.29;46.43
1401;BME280;46518;48.842;8.926;2023-06-26T12:04:38;97119.97;;;27.48;45.68
1401;BME280;46518;48.842;8.926;2023-06-26T12:07:19;97126.84;;;27.26;46.29
1401;BME280;46518;48.842;8.926;2023-06-26T12:09:52;97120.94;;;27.60;45.23
1401;BME280;46518;48.842;8.926;2023-06-26T12:12:33;97117.53;;;27.63;45.84
1401;BME280;46518;48.842;8.926;2023-06-26T12:15:13;97127.56;;;27.62;44.89
1401;BME280;46518;48.842;8.926;2023-06-26T12:17:49;97116.31;;;27.80;44.89
1401;BME280;46518;48.842;8.926;2023-06-26T12:20:23;97117.22;;;27.68;44.38
1401;BME280;46518;48.842;8.926;2023-06-26T12:22:56;97111.00;;;27.64;44.21
1401;BME280;46518;48.842;8.926;2023-06-26T12:25:32;97107.56;;;27.67;44.02
1401;BME280;46518;48.842;8.926;2023-06-26T12:28:03;97109.69;;;27.77;43.67
1401;BME280;46518;48.842;8.926;2023-06-26T12:30:37;97117.25;;;27.87;44.88
1401;BME280;46518;48.842;8.926;2023-06-26T12:33:17;97112.00;;;27.98;43.20
1401;BME280;46518;48.842;8.926;2023-06-26T12:35:53;97113.50;;;27.95;43.11
1401;BME280;46518;48.842;8.926;2023-06-26T12:38:21;97122.78;;;27.75;43.02
1401;BME280;46518;48.842;8.926;2023-06-26T12:40:52;97129.78;;;27.57;43.70
1401;BME280;46518;48.842;8.926;2023-06-26T12:43:38;97114.47;;;27.45;42.78
1401;BME280;46518;48.842;8.926;2023-06-26T12:46:10;97120.16;;;27.20;43.34
1401;BME280;46518;48.842;8.926;2023-06-26T12:48:43;97129.56;;;27.46;42.84
1401;BME280;46518;48.842;8.926;2023-06-26T12:51:18;97120.38;;;27.70;42.62
1401;BME280;46518;48.842;8.926;2023-06-26T12:53:47;97128.63;;;27.96;41.28
1401;BME280;46518;48.842;8.926;2023-06-26T12:56:25;97127.97;;;28.03;40.99
1401;BME280;46518;48.842;8.926;2023-06-26T12:58:56;97128.06;;;27.87;41.00
1401;BME280;46518;48.842;8.926;2023-06-26T13:01:31;97124.16;;;27.85;40.11
1401;BME280;46518;48.842;8.926;2023-06-26T13:04:03;97101.97;;;27.56;40.69
1401;BME280;46518;48.842;8.926;2023-06-26T13:06:46;97125.41;;;27.32;40.54
1401;BME280;46518;48.842;8.926;2023-06-26T13:09:17;97114.47;;;27.45;41.03
1401;BME280;46518;48.842;8.926;2023-06-26T13:12:05;97128.06;;;27.48;40.12
1401;BME280;46518;48.842;8.926;2023-06-26T13:14:51;97114.97;;;27.70;40.26
1401;BME280;46518;48.842;8.926;2023-06-26T13:17:22;97109.75;;;28.00;39.97
1401;BME280;46518;48.842;8.926;2023-06-26T13:20:07;97124.84;;;28.24;38.48
1401;BME280;46518;48.842;8.926;2023-06-26T13:22:49;97116.56;;;28.36;38.37
1401;BME280;46518;48.842;8.926;2023-06-26T13:25:38;97103.94;;;28.21;37.66
1401;BME280;46518;48.842;8.926;2023-06-26T13:28:16;97106.81;;;28.09;38.90
1401;BME280;46518;48.842;8.926;2023-06-26T13:30:56;97105.22;;;28.08;38.00
1401;BME280;46518;48.842;8.926;2023-06-26T13:33:27;97107.53;;;28.06;37.30
1401;BME280;46518;48.842;8.926;2023-06-26T13:36:00;97107.44;;;28.45;38.10
1401;BME280;46518;48.842;8.926;2023-06-26T13:38:36;97103.91;;;28.44;37.58
1401;BME280;46518;48.842;8.926;2023-06-26T13:41:07;97110.47;;;28.20;35.80
1401;BME280;46518;48.842;8.926;2023-06-26T13:43:42;97098.72;;;27.89;36.91
1401;BME280;46518;48.842;8.926;2023-06-26T13:46:15;97105.34;;;28.15;37.34
1401;BME280;46518;48.842;8.926;2023-06-26T13:48:43;97108.84;;;28.15;35.99
1401;BME280;46518;48.842;8.926;2023-06-26T13:51:19;97095.19;;;27.85;36.51
1401;BME280;46518;48.842;8.926;2023-06-26T13:53:53;97109.44;;;28.05;37.00
1401;BME280;46518;48.842;8.926;2023-06-26T13:56:27;97106.81;;;28.09;36.61
1401;BME280;46518;48.842;8.926;2023-06-26T13:59:03;97110.81;;;27.95;35.89
1401;BME280;46518;48.842;8.926;2023-06-26T14:01:39;97097.25;;;27.92;37.73
1401;BME280;46518;48.842;8.926;2023-06-26T14:04:11;97103.75;;;28.33;36.31
1401;BME280;46518;48.842;8.926;2023-06-26T14:06:43;97108.19;;;28.45;36.46
1401;BME280;46518;48.842;8.926;2023-06-26T14:09:22;97095.81;;;28.21;35.37
1401;BME280;46518;48.842;8.926;2023-06-26T14:11:53;97099.00;;;28.04;37.72